createdAt,value
2019-03-28T00:03:43.005Z,18.13
2019-03-28T00:07:47.909Z,17.93
2019-03-28T00:11:52.815Z,18.30
2019-03-28T00:15:58.266Z,16.33
2019-03-28T00:20:04.239Z,16.70
2019-03-28T00:24:11.838Z,17.23
2019-03-28T00:28:16.753Z,17.40
2019-03-28T00:32:21.660Z,17.13
2019-03-28T00:36:26.565Z,15.93
2019-03-28T00:40:31.467Z,17.17
2019-03-28T00:44:36.359Z,18.83
2019-03-28T00:48:41.265Z,18.53
2019-03-28T00:52:46.163Z,17.70
2019-03-28T00:56:52.053Z,16.43
2019-03-28T01:00:56.964Z,16.50
2019-03-28T01:05:01.874Z,17.03
2019-03-28T01:09:07.478Z,17.10
2019-03-28T01:13:12.381Z,16.93
2019-03-28T01:17:17.290Z,16.20
2019-03-28T01:21:22.201Z,15.73
2019-03-28T01:25:27.545Z,15.23
2019-03-28T01:29:32.583Z,16.37
2019-03-28T01:33:37.492Z,15.90
2019-03-28T01:37:42.403Z,16.97
2019-03-28T01:41:47.312Z,14.57
2019-03-28T01:45:52.212Z,17.43
2019-03-28T01:49:57.109Z,15.57
2019-03-28T01:54:02.017Z,17.33
2019-03-28T01:58:06.924Z,17.00
2019-03-28T02:02:11.831Z,15.40
2019-03-28T02:06:16.807Z,15.07
2019-03-28T02:10:21.712Z,15.80
2019-03-28T02:14:26.601Z,16.70
2019-03-28T02:18:31.508Z,16.63
2019-03-28T02:22:36.684Z,16.63
2019-03-28T02:26:41.599Z,17.47
2019-03-28T02:30:46.495Z,18.73
2019-03-28T02:34:52.460Z,17.17
2019-03-28T02:38:58.581Z,18.47
2019-03-28T02:43:03.647Z,16.67
2019-03-28T02:47:09.521Z,16.70
2019-03-28T02:51:14.496Z,16.17
2019-03-28T02:55:19.403Z,16.13
2019-03-28T02:59:24.323Z,15.83
2019-03-28T03:03:29.230Z,14.63
2019-03-28T03:07:34.134Z,14.93
2019-03-28T03:11:42.567Z,15.60
2019-03-28T03:15:45.652Z,13.80
2019-03-28T03:19:51.413Z,14.80
2019-03-28T03:23:56.452Z,15.07
2019-03-28T03:28:01.344Z,15.00
2019-03-28T03:32:06.263Z,14.93
2019-03-28T03:36:11.165Z,15.67
2019-03-28T03:40:16.495Z,14.07
2019-03-28T03:44:21.399Z,14.60
2019-03-28T03:48:26.301Z,14.10
2019-03-28T03:52:31.202Z,15.40
2019-03-28T03:56:36.112Z,15.03
2019-03-28T04:00:41.005Z,15.10
2019-03-28T04:04:45.909Z,15.40
2019-03-28T04:08:50.822Z,14.87
2019-03-28T04:12:55.720Z,14.90
2019-03-28T04:17:00.630Z,15.10
2019-03-28T04:21:05.590Z,16.20
2019-03-28T04:25:10.440Z,16.03
2019-03-28T04:29:15.343Z,14.73
2019-03-28T04:33:20.245Z,15.13
2019-03-28T04:37:25.149Z,15.17
2019-03-28T04:41:30.048Z,14.07
2019-03-28T04:45:34.945Z,15.23
2019-03-28T04:49:39.854Z,14.37
2019-03-28T04:53:44.759Z,13.83
2019-03-28T04:57:49.667Z,15.37
2019-03-28T05:02:02.843Z,15.83
2019-03-28T05:06:01.180Z,14.07
2019-03-28T05:10:10.275Z,15.43
2019-03-28T05:14:15.178Z,16.60
2019-03-28T05:18:20.076Z,16.40
2019-03-28T05:22:24.981Z,14.27
2019-03-28T05:26:29.883Z,15.80
2019-03-28T05:30:34.777Z,15.37
2019-03-28T05:34:39.684Z,14.37
2019-03-28T05:38:44.590Z,15.70
2019-03-28T05:42:49.502Z,14.70
2019-03-28T05:46:54.430Z,14.03
2019-03-28T05:50:59.329Z,14.40
2019-03-28T05:55:05.648Z,14.80
2019-03-28T05:59:11.432Z,17.23
2019-03-28T06:03:16.579Z,14.67
2019-03-28T06:07:21.485Z,16.40
2019-03-28T06:11:26.389Z,15.07
2019-03-28T06:15:31.288Z,18.53
2019-03-28T06:19:36.196Z,16.57
2019-03-28T06:23:41.115Z,16.27
2019-03-28T06:27:46.026Z,15.10
2019-03-28T06:31:55.635Z,17.57
2019-03-28T06:35:57.514Z,17.57
2019-03-28T06:40:02.421Z,19.07
2019-03-28T06:44:07.330Z,17.33
2019-03-28T06:48:12.232Z,17.47
2019-03-28T06:52:17.136Z,22.83
2019-03-28T06:56:22.033Z,21.40
2019-03-28T07:00:26.945Z,16.80
2019-03-28T07:04:31.846Z,21.33
2019-03-28T07:08:36.747Z,20.03
2019-03-28T07:12:41.660Z,19.50
2019-03-28T07:16:46.567Z,20.47
2019-03-28T07:20:52.352Z,19.53
2019-03-28T07:24:57.349Z,18.87
2019-03-28T07:29:02.261Z,21.07
2019-03-28T07:33:07.169Z,19.70
2019-03-28T07:37:12.594Z,21.07
2019-03-28T07:41:17.713Z,21.70
2019-03-28T07:45:22.685Z,20.53
2019-03-28T07:49:27.603Z,23.70
2019-03-28T07:53:32.511Z,21.87
2019-03-28T07:57:38.496Z,21.40
2019-03-28T08:01:43.396Z,21.40
2019-03-28T08:05:48.314Z,19.37
2019-03-28T08:09:53.237Z,21.57
2019-03-28T08:13:58.141Z,22.67
2019-03-28T08:18:03.113Z,20.77
2019-03-28T08:22:08.105Z,19.63
2019-03-28T08:26:13.077Z,20.83
2019-03-28T08:30:21.040Z,15.40
2019-03-28T08:34:26.192Z,13.80
2019-03-28T08:38:32.755Z,14.30
2019-03-28T08:42:37.829Z,14.97
2019-03-28T08:46:42.732Z,15.03
2019-03-28T08:50:47.652Z,14.00
2019-03-28T08:54:52.567Z,13.07
2019-03-28T08:58:57.492Z,13.73
2019-03-28T09:03:02.422Z,12.50
2019-03-28T09:07:07.307Z,11.60
2019-03-28T09:11:12.223Z,10.17
2019-03-28T09:15:18.036Z,11.80
2019-03-28T09:19:22.948Z,10.40
2019-03-28T09:23:27.874Z,11.27
2019-03-28T09:27:32.785Z,12.57
2019-03-28T09:31:37.758Z,11.43
2019-03-28T09:35:42.817Z,12.37
2019-03-28T09:39:47.860Z,12.73
2019-03-28T09:43:55.621Z,12.87
2019-03-28T09:47:59.383Z,13.80
2019-03-28T09:52:04.283Z,14.53
2019-03-28T09:56:09.190Z,13.73
2019-03-28T10:00:15.449Z,14.87
2019-03-28T10:04:20.364Z,14.23
2019-03-28T10:08:25.285Z,14.43
2019-03-28T10:12:30.184Z,13.43
2019-03-28T10:16:35.680Z,13.50
2019-03-28T10:20:40.782Z,13.17
2019-03-28T10:24:45.691Z,11.57
2019-03-28T10:28:50.608Z,11.67
2019-03-28T10:32:55.506Z,11.83
2019-03-28T10:37:00.423Z,10.30
2019-03-28T10:41:05.334Z,9.30
2019-03-28T10:45:10.680Z,9.93
2019-03-28T10:49:15.939Z,8.70
2019-03-28T10:53:20.970Z,8.43
2019-03-28T10:57:30.336Z,7.17
2019-03-28T11:01:47.606Z,6.53
2019-03-28T11:05:39.080Z,6.13
2019-03-28T11:09:43.974Z,3.90
2019-03-28T11:13:48.874Z,2.17
2019-03-28T11:17:53.765Z,2.00
2019-03-28T11:21:58.659Z,1.80
2019-03-28T11:26:03.554Z,1.57
2019-03-28T11:30:08.991Z,1.33
2019-03-28T11:34:14.666Z,1.97
2019-03-28T11:38:19.751Z,2.90
2019-03-28T11:42:24.654Z,3.27
2019-03-28T11:46:30.625Z,2.93
2019-03-28T11:50:35.528Z,2.57
2019-03-28T11:54:40.425Z,3.37
2019-03-28T11:58:45.324Z,2.70
2019-03-28T12:02:50.223Z,3.60
2019-03-28T12:06:55.122Z,3.67
2019-03-28T12:11:00.024Z,4.03
2019-03-28T12:15:07.070Z,3.80
2019-03-28T12:19:11.964Z,4.20
2019-03-28T12:23:16.852Z,4.87
2019-03-28T12:27:21.756Z,4.70
2019-03-28T12:31:26.646Z,5.13
2019-03-28T12:35:31.543Z,7.23
2019-03-28T12:39:36.470Z,6.90
2019-03-28T12:43:41.360Z,5.93
2019-03-28T12:47:46.274Z,4.43
2019-03-28T12:51:51.177Z,4.67
2019-03-28T12:55:56.088Z,6.70
2019-03-28T13:00:01.003Z,7.43
2019-03-28T13:04:05.899Z,7.03
2019-03-28T13:08:10.787Z,5.27
2019-03-28T13:12:15.690Z,5.73
2019-03-28T13:16:20.604Z,6.80
2019-03-28T13:20:25.509Z,5.87
2019-03-28T13:24:30.408Z,5.47
2019-03-28T13:28:35.298Z,5.03
2019-03-28T13:32:42.458Z,6.13
2019-03-28T13:36:47.581Z,4.90
2019-03-28T13:40:52.485Z,5.37
2019-03-28T13:44:57.388Z,5.37
2019-03-28T13:49:02.318Z,4.73
2019-03-28T13:53:07.214Z,11.47
2019-03-28T13:57:12.121Z,4.47
2019-03-28T14:01:17.020Z,4.97
2019-03-28T14:05:21.925Z,4.47
2019-03-28T14:09:26.836Z,4.50
2019-03-28T14:13:31.726Z,4.07
2019-03-28T14:17:36.637Z,4.63
2019-03-28T14:21:41.541Z,4.27
2019-03-28T14:25:46.482Z,4.67
2019-03-28T14:29:51.372Z,4.83
2019-03-28T14:33:56.257Z,4.37
2019-03-28T14:38:01.155Z,4.20
2019-03-28T14:42:06.055Z,3.70
2019-03-28T14:46:10.947Z,4.50
2019-03-28T14:50:18.913Z,4.93
2019-03-28T14:54:23.863Z,4.47
2019-03-28T14:58:29.537Z,4.90
2019-03-28T15:02:34.444Z,4.40
2019-03-28T15:06:39.336Z,4.43
2019-03-28T15:10:44.237Z,4.63
2019-03-28T15:14:49.139Z,4.73
2019-03-28T15:18:54.031Z,5.77
2019-03-28T15:22:58.934Z,5.40
2019-03-28T15:27:03.883Z,5.33
2019-03-28T15:31:09.867Z,5.07
2019-03-28T15:35:14.771Z,3.83
2019-03-28T15:39:19.662Z,4.30
2019-03-28T15:43:24.556Z,4.17
2019-03-28T15:47:29.460Z,5.30
2019-03-28T15:51:34.360Z,5.93
2019-03-28T15:55:39.270Z,4.50
2019-03-28T15:59:45.132Z,5.10
2019-03-28T16:03:53.167Z,5.07
2019-03-28T16:07:59.179Z,5.27
2019-03-28T16:12:03.307Z,4.83
2019-03-28T16:16:08.213Z,4.70
2019-03-28T16:20:13.568Z,4.07
2019-03-28T16:24:18.446Z,4.13
2019-03-28T16:28:23.351Z,4.33
2019-03-28T16:32:28.257Z,4.57
2019-03-28T16:36:33.161Z,5.30
2019-03-28T16:40:38.078Z,4.80
2019-03-28T16:44:42.964Z,4.57
2019-03-28T16:48:47.860Z,4.00
2019-03-28T16:52:52.772Z,4.03
2019-03-28T16:56:57.674Z,3.40
2019-03-28T17:01:02.615Z,3.37
2019-03-28T17:05:09.009Z,3.37
2019-03-28T17:09:13.912Z,4.17
2019-03-28T17:13:19.086Z,3.90
2019-03-28T17:17:23.991Z,3.97
2019-03-28T17:21:28.879Z,3.50
2019-03-28T17:25:33.773Z,3.50
2019-03-28T17:29:39.647Z,3.13
2019-03-28T17:33:44.545Z,3.23
2019-03-28T17:37:49.441Z,3.77
2019-03-28T17:41:54.354Z,3.27
2019-03-28T17:45:59.266Z,2.93
2019-03-28T17:50:06.393Z,3.10
2019-03-28T17:54:11.977Z,3.60
2019-03-28T17:58:17.091Z,3.50
2019-03-28T18:02:21.996Z,5.07
2019-03-28T18:06:26.890Z,5.97
2019-03-28T18:10:31.776Z,6.40
2019-03-28T18:14:36.682Z,7.20
2019-03-28T18:18:41.585Z,7.67
2019-03-28T18:22:46.503Z,8.73
2019-03-28T18:26:51.892Z,8.70
2019-03-28T18:30:56.966Z,7.93
2019-03-28T18:35:05.787Z,8.07
2019-03-28T18:39:08.478Z,8.80
2019-03-28T18:43:13.385Z,8.00
2019-03-28T18:47:18.297Z,8.57
2019-03-28T18:51:23.187Z,8.20
2019-03-28T18:55:28.100Z,7.97
2019-03-28T18:59:33.003Z,7.70
2019-03-28T19:03:37.910Z,6.97
2019-03-28T19:07:42.814Z,6.20
2019-03-28T19:11:47.717Z,6.33
2019-03-28T19:15:52.612Z,5.50
2019-03-28T19:19:59.546Z,6.03
2019-03-28T19:24:04.109Z,5.93
2019-03-28T19:28:09.010Z,5.70
2019-03-28T19:32:13.905Z,5.53
2019-03-28T19:36:18.934Z,5.70
2019-03-28T19:40:23.834Z,6.00
2019-03-28T19:44:29.810Z,7.53
2019-03-28T19:48:35.685Z,6.10
2019-03-28T19:52:40.586Z,6.00
2019-03-28T19:56:46.649Z,6.20
2019-03-28T20:00:51.804Z,5.50
2019-03-28T20:04:56.702Z,5.50
2019-03-28T20:09:15.399Z,6.07
2019-03-28T20:13:08.385Z,6.00
2019-03-28T20:17:13.289Z,5.87
2019-03-28T20:21:19.243Z,5.60
2019-03-28T20:25:24.148Z,7.47
2019-03-28T20:29:29.050Z,5.97
2019-03-28T20:33:33.957Z,5.80
2019-03-28T20:37:38.922Z,5.70
2019-03-28T20:41:43.818Z,5.90
2019-03-28T20:45:48.722Z,5.03
2019-03-28T20:49:53.627Z,5.80
2019-03-28T20:53:58.524Z,5.80
2019-03-28T20:58:03.422Z,5.00
2019-03-28T21:02:08.319Z,5.47
2019-03-28T21:06:15.483Z,5.80
2019-03-28T21:10:25.896Z,5.67
2019-03-28T21:14:30.810Z,5.50
2019-03-28T21:18:35.699Z,4.83
2019-03-28T21:22:40.600Z,5.87
2019-03-28T21:26:45.495Z,7.37
2019-03-28T21:30:50.400Z,7.20
2019-03-28T21:34:56.612Z,6.13
2019-03-28T21:39:01.686Z,6.50
2019-03-28T21:43:07.256Z,6.73
2019-03-28T21:47:12.151Z,6.30
2019-03-28T21:51:17.045Z,7.27
2019-03-28T21:55:21.947Z,8.10
2019-03-28T21:59:26.837Z,7.33
2019-03-28T22:03:31.734Z,5.97
2019-03-28T22:07:36.622Z,6.47
2019-03-28T22:11:41.521Z,6.87
2019-03-28T22:15:46.423Z,6.90
2019-03-28T22:19:51.806Z,6.83
2019-03-28T22:23:56.900Z,6.20
2019-03-28T22:28:01.797Z,6.97
2019-03-28T22:32:06.688Z,7.40
2019-03-28T22:36:11.581Z,6.27
2019-03-28T22:40:16.644Z,5.87
2019-03-28T22:44:21.539Z,7.40
2019-03-28T22:48:26.433Z,6.47
2019-03-28T22:52:31.322Z,5.83
2019-03-28T22:56:36.291Z,7.00
2019-03-28T23:00:45.906Z,7.37
2019-03-28T23:04:52.399Z,7.03
2019-03-28T23:08:57.311Z,6.63
2019-03-28T23:13:02.192Z,6.87
2019-03-28T23:17:07.087Z,7.13
2019-03-28T23:21:11.982Z,6.60
2019-03-28T23:25:16.877Z,6.33
2019-03-28T23:29:21.795Z,6.17
2019-03-28T23:33:26.696Z,6.50
2019-03-28T23:37:31.581Z,5.87
2019-03-28T23:41:36.556Z,6.43
2019-03-28T23:45:41.456Z,5.77
2019-03-28T23:49:46.353Z,6.10
2019-03-28T23:53:51.263Z,5.33
2019-03-28T23:57:56.129Z,5.50
